Time;durP1;ratioP1;P1;durP2;ratioP2;P2;SDS_P1;SDS_P2;PMS_P1;PMS_P2;Temp;Humidity;BMP_temperature;BMP_pressure;BME280_temperature;BME280_humidity;BME280_pressure;Samples;Min_cycle;Max_cycle;Signal;HPM_P1;HPM_P2
2022/11/11 00:01:06;;;;;;;52.28;28.95;;;333.00;2329.60;;;;;;5070564;28;20028;-78
2022/11/11 00:03:32;;;;;;;52.08;28.02;;;308.10;2304.00;;;;;;5069310;28;20055;-78
2022/11/11 00:06:02;;;;;;;46.58;27.45;;;308.10;2304.00;;;;;;5070576;28;20416;-78
2022/11/11 00:08:28;;;;;;;52.65;27.48;;;308.10;2304.00;;;;;;5070141;28;20036;-79
2022/11/11 00:11:05;;;;;;;49.13;27.30;;;308.10;2304.00;;;;;;5070680;28;20023;-78
2022/11/11 00:13:32;;;;;;;52.60;28.77;;;308.10;2304.00;;;;;;5070369;28;20013;-78
2022/11/11 00:16:08;;;;;;;54.58;28.90;;;308.00;2304.00;;;;;;5070255;28;20028;-78
2022/11/11 00:26:48;;;;;;;46.90;25.95;;;308.00;2304.00;;;;;;5069788;28;20047;-79
2022/11/11 00:29:13;;;;;;;48.08;25.58;;;308.10;2304.00;;;;;;5071534;28;20028;-78
2022/11/11 00:32:21;;;;;;;53.90;25.70;;;308.10;2304.00;;;;;;5070363;28;20466;-78
2022/11/11 00:34:25;;;;;;;48.40;26.45;;;308.00;2304.00;;;;;;5071509;28;20024;-78
2022/11/11 00:36:50;;;;;;;47.03;24.77;;;308.00;2304.00;;;;;;5070359;28;20531;-78
2022/11/11 00:39:16;;;;;;;44.40;26.17;;;308.10;2304.00;;;;;;5071614;28;20082;-78
2022/11/11 00:41:42;;;;;;;52.30;24.23;;;308.00;2304.00;;;;;;5069648;28;20056;-78
2022/11/11 00:44:07;;;;;;;40.78;22.45;;;308.10;2304.00;;;;;;5070243;28;20452;-78
2022/11/11 00:52:01;;;;;;;46.50;24.33;;;308.00;2304.00;;;;;;5075644;28;20024;-78
2022/11/11 00:54:27;;;;;;;47.17;25.90;;;308.00;2304.00;;;;;;5073399;28;20037;-78
2022/11/11 00:56:53;;;;;;;47.47;24.73;;;308.00;2304.00;;;;;;5074275;28;20566;-78
2022/11/11 00:59:18;;;;;;;46.95;24.85;;;307.90;2304.00;;;;;;5073683;28;20033;-78
2022/11/11 01:01:44;;;;;;;;;;;308.00;2304.00;;;;;;5074159;28;20031;-78
2022/11/11 01:04:10;;;;;;;43.08;24.38;;;308.00;2304.00;;;;;;5073866;28;19905;-78
2022/11/11 01:06:36;;;;;;;41.90;25.25;;;308.00;2304.00;;;;;;5073487;28;20021;-78
2022/11/11 01:09:07;;;;;;;48.22;24.88;;;308.00;2304.00;;;;;;5073615;28;20386;-78
2022/11/11 01:11:33;;;;;;;45.30;25.00;;;308.00;2304.00;;;;;;5073025;28;20032;-78
2022/11/11 01:13:59;;;;;;;43.83;24.30;;;308.00;2304.00;;;;;;5073804;28;20024;-78
2022/11/11 01:16:26;;;;;;;41.63;23.77;;;308.00;2304.00;;;;;;5073458;28;20032;-79
2022/11/11 01:18:52;;;;;;;43.70;24.20;;;308.10;2304.00;;;;;;5073317;28;20021;-78
2022/11/11 01:21:23;;;;;;;47.03;24.48;;;308.10;2304.00;;;;;;5073239;28;20024;-78
2022/11/11 01:23:50;;;;;;;43.47;24.40;;;308.10;2304.00;;;;;;5073415;28;20154;-78
2022/11/11 01:26:19;;;;;;;45.97;25.45;;;308.00;2304.00;;;;;;5073247;28;20032;-79
2022/11/11 01:28:48;;;;;;;43.35;24.08;;;308.00;2304.00;;;;;;5072959;28;20036;-78
2022/11/11 01:31:15;;;;;;;47.38;24.40;;;308.00;2304.00;;;;;;5090086;28;20032;-78
2022/11/11 01:33:41;;;;;;;42.80;24.45;;;308.10;2304.00;;;;;;5072840;28;20027;-78
2022/11/11 01:36:10;;;;;;;42.72;23.95;;;308.10;2304.00;;;;;;5073430;28;20029;-78
2022/11/11 01:38:37;;;;;;;43.03;23.27;;;308.10;2304.00;;;;;;5073841;28;20054;-79
2022/11/11 01:41:31;;;;;;;39.53;23.17;;;333.00;2329.60;;;;;;5072790;28;20532;-78
2022/11/11 01:43:51;;;;;;;41.60;24.17;;;308.10;2304.00;;;;;;5074071;28;20017;-79
2022/11/11 01:46:29;;;;;;;41.47;23.67;;;308.10;2304.00;;;;;;5072304;28;20127;-79
2022/11/11 01:49:21;;;;;;;42.78;22.40;;;308.00;2304.00;;;;;;5072622;28;20113;-79
2022/11/11 01:51:59;;;;;;;40.65;23.10;;;308.00;2304.00;;;;;;5074157;28;20124;-78
2022/11/11 01:54:43;;;;;;;40.75;23.50;;;307.90;2304.00;;;;;;5073477;28;20094;-78
2022/11/11 01:57:26;;;;;;;40.30;22.35;;;307.90;2304.00;;;;;;5069100;28;20048;-79
2022/11/11 01:59:59;;;;;;;38.72;21.63;;;307.90;2304.00;;;;;;5072753;28;20047;-79
2022/11/11 02:02:40;;;;;;;39.42;21.73;;;307.80;2304.00;;;;;;5072702;28;20024;-79
2022/11/11 02:07:57;;;;;;;41.33;23.70;;;307.90;2304.00;;;;;;5073390;28;20120;-78
2022/11/11 02:10:24;;;;;;;40.45;21.77;;;307.90;2304.00;;;;;;5072515;28;20107;-78
2022/11/11 02:15:37;;;;;;;41.55;21.20;;;307.90;2304.00;;;;;;5073676;28;20019;-79
2022/11/11 02:18:04;;;;;;;43.17;24.13;;;307.90;2304.00;;;;;;5071792;28;20437;-80
2022/11/11 02:20:34;;;;;;;40.22;22.15;;;307.90;2304.00;;;;;;5072102;28;20054;-80
2022/11/11 02:23:09;;;;;;;40.28;23.42;;;308.00;2304.00;;;;;;5072206;28;20051;-78
2022/11/11 02:25:38;;;;;;;40.25;22.70;;;307.90;2304.00;;;;;;5066929;28;20470;-79
2022/11/11 02:28:06;;;;;;;42.88;22.65;;;307.90;2304.00;;;;;;5071861;28;20052;-78
2022/11/11 02:30:32;;;;;;;42.50;22.50;;;307.90;2304.00;;;;;;5073251;28;20013;-80
2022/11/11 02:32:58;;;;;;;36.55;21.38;;;307.60;2304.00;;;;;;5072174;28;20081;-80
2022/11/11 02:35:31;;;;;;;37.25;21.35;;;307.80;2304.00;;;;;;5072068;28;20024;-79
2022/11/11 02:37:56;;;;;;;37.45;21.60;;;307.90;2304.00;;;;;;5072154;28;20023;-80
2022/11/11 02:40:31;;;;;;;41.75;22.63;;;307.80;2304.00;;;;;;5072037;28;20028;-78
2022/11/11 02:42:57;;;;;;;41.58;22.45;;;307.80;2304.00;;;;;;5071785;28;20461;-78
2022/11/11 02:45:24;;;;;;;32.55;21.17;;;307.80;2304.00;;;;;;5072034;28;20108;-80
2022/11/11 02:47:50;;;;;;;36.20;20.48;;;307.70;2304.00;;;;;;5071727;28;20123;-80
2022/11/11 02:50:15;;;;;;;44.45;23.75;;;307.70;2304.00;;;;;;5072052;28;20099;-78
2022/11/11 02:52:41;;;;;;;34.17;19.67;;;307.80;2304.00;;;;;;5071155;28;20029;-80
2022/11/11 02:55:07;;;;;;;40.45;22.60;;;307.80;2304.00;;;;;;5070516;28;20058;-80
2022/11/11 02:57:34;;;;;;;35.70;19.88;;;307.80;2304.00;;;;;;5071839;28;20079;-81
2022/11/11 03:00:01;;;;;;;36.53;20.92;;;307.70;2304.00;;;;;;5072707;28;20017;-80
2022/11/11 03:02:27;;;;;;;37.75;20.85;;;307.70;2304.00;;;;;;5071581;28;20369;-80
2022/11/11 03:04:54;;;;;;;35.92;20.90;;;307.90;2304.00;;;;;;5071053;28;20028;-80
2022/11/11 03:07:21;;;;;;;40.55;21.23;;;307.70;2304.00;;;;;;5071211;28;20147;-80
2022/11/11 03:09:47;;;;;;;39.30;21.13;;;307.60;2304.00;;;;;;5072002;28;20096;-80
2022/11/11 03:12:13;;;;;;;36.00;20.00;;;307.60;2304.00;;;;;;5071383;28;20493;-80
2022/11/11 03:14:39;;;;;;;37.10;21.55;;;307.60;2304.00;;;;;;5071333;28;20107;-80
2022/11/11 03:19:49;;;;;;;35.53;19.92;;;307.60;2304.00;;;;;;5072861;28;20039;-80
2022/11/11 03:22:15;;;;;;;37.15;23.15;;;307.50;2304.00;;;;;;5071014;28;20016;-80
2022/11/11 03:27:24;;;;;;;31.98;18.15;;;307.40;2304.00;;;;;;5071040;28;20036;-80
2022/11/11 03:29:50;;;;;;;36.85;21.00;;;307.40;2304.00;;;;;;5071830;28;20429;-77
2022/11/11 03:32:16;;;;;;;36.35;19.92;;;307.40;2304.00;;;;;;5070777;28;20032;-80
2022/11/11 03:34:42;;;;;;;32.63;20.25;;;307.40;2304.00;;;;;;5070325;28;20035;-78
2022/11/11 03:39:54;;;;;;;37.75;19.60;;;307.40;2304.00;;;;;;5071873;28;20031;-80
2022/11/11 03:42:20;;;;;;;36.35;19.75;;;307.30;2304.00;;;;;;5071074;28;20020;-78
2022/11/11 03:44:45;;;;;;;34.10;20.75;;;307.30;2304.00;;;;;;5069909;28;20078;-78
2022/11/11 03:47:11;;;;;;;35.65;21.10;;;307.30;2304.00;;;;;;5070333;28;20032;-78
2022/11/11 03:49:37;;;;;;;46.33;21.17;;;307.20;2304.00;;;;;;5071261;28;20017;-79
2022/11/11 03:52:03;;;;;;;32.58;19.92;;;282.50;2278.40;;;;;;5071924;28;20021;-78
2022/11/11 03:54:29;;;;;;;44.63;23.55;;;282.50;2278.40;;;;;;5071937;28;20044;-78
2022/11/11 03:57:29;;;;;;;40.60;22.50;;;282.50;2278.40;;;;;;5070231;28;20040;-78
2022/11/11 03:59:43;;;;;;;38.38;19.65;;;282.50;2278.40;;;;;;5071753;28;20108;-79
2022/11/11 04:10:24;;;;;;;34.85;19.75;;;307.20;2304.00;;;;;;5070177;28;20035;-78
2022/11/11 04:21:42;;;;;;;36.58;20.35;;;282.50;2278.40;;;;;;5072428;28;20036;-78
2022/11/11 04:23:52;;;;;;;39.05;21.30;;;282.50;2278.40;;;;;;5076076;28;20051;-78
2022/11/11 04:26:18;;;;;;;34.38;20.10;;;282.50;2278.40;;;;;;5074525;28;20480;-78
2022/11/11 04:31:28;;;;;;;36.58;21.73;;;282.50;2278.40;;;;;;5074273;28;20446;-78
2022/11/11 04:33:54;;;;;;;34.63;19.65;;;307.20;2304.00;;;;;;5074564;28;20104;-78
2022/11/11 04:36:19;;;;;;;39.33;21.02;;;282.50;2278.40;;;;;;5074073;28;20032;-78
2022/11/11 04:41:29;;;;;;;30.23;20.40;;;282.50;2278.40;;;;;;5074395;28;20059;-78
2022/11/11 04:46:39;;;;;;;40.47;21.67;;;307.20;2304.00;;;;;;5075285;28;20074;-78
2022/11/11 04:49:05;;;;;;;47.63;23.42;;;282.50;2278.40;;;;;;5074121;28;20424;-78
2022/11/11 04:52:25;;;;;;;35.05;19.73;;;307.20;2304.00;;;;;;5075500;28;20048;-78
2022/11/11 04:54:16;;;;;;;37.83;19.90;;;282.50;2278.40;;;;;;5075269;28;20040;-78
2022/11/11 04:56:48;;;;;;;37.42;20.17;;;307.20;2304.00;;;;;;5074092;28;20044;-78
2022/11/11 04:59:15;;;;;;;46.08;22.77;;;307.30;2304.00;;;;;;5074020;28;20038;-79
2022/11/11 05:04:26;;;;;;;36.40;21.05;;;307.20;2304.00;;;;;;5073108;28;20031;-78
2022/11/11 05:09:36;;;;;;;40.78;22.40;;;307.20;2304.00;;;;;;5075111;28;20439;-79
2022/11/11 05:12:02;;;;;;;33.38;20.75;;;307.30;2304.00;;;;;;5073526;28;20484;-78
2022/11/11 05:22:42;;;;;;;33.67;19.98;;;282.50;2278.40;;;;;;5074356;28;20055;-77
2022/11/11 05:25:24;;;;;;;36.33;20.65;;;282.50;2278.40;;;;;;5072482;28;20108;-76
2022/11/11 05:27:53;;;;;;;39.08;23.02;;;282.50;2278.40;;;;;;5073203;28;20062;-78
2022/11/11 05:30:20;;;;;;;38.65;21.27;;;282.50;2278.40;;;;;;5073326;28;20107;-78
2022/11/11 05:32:46;;;;;;;34.90;20.48;;;282.50;2278.40;;;;;;5070048;28;20488;-78
2022/11/11 05:35:13;;;;;;;39.45;21.90;;;282.40;2278.40;;;;;;5074255;28;20086;-77
2022/11/11 05:37:39;;;;;;;43.65;21.50;;;282.50;2278.40;;;;;;5072952;28;20034;-78
2022/11/11 05:40:06;;;;;;;35.75;20.77;;;282.50;2278.40;;;;;;5073025;28;20104;-78
2022/11/11 05:42:32;;;;;;;36.42;20.55;;;282.50;2278.40;;;;;;5072972;28;20116;-78
2022/11/11 05:44:58;;;;;;;41.72;21.50;;;282.50;2278.40;;;;;;5073294;28;20052;-78
2022/11/11 05:47:24;;;;;;;41.70;21.95;;;282.50;2278.40;;;;;;5072753;28;20029;-78
2022/11/11 05:49:49;;;;;;;39.95;20.48;;;282.50;2278.40;;;;;;5072689;28;20535;-78
2022/11/11 05:52:16;;;;;;;37.80;21.70;;;282.40;2278.40;;;;;;5089792;28;20025;-78
2022/11/11 05:54:43;;;;;;;34.75;20.80;;;282.50;2278.40;;;;;;5072511;28;20055;-78
2022/11/11 05:57:08;;;;;;;39.35;21.33;;;282.40;2278.40;;;;;;5072393;28;20075;-77
2022/11/11 05:59:34;;;;;;;41.55;22.40;;;282.40;2278.40;;;;;;5072621;28;20052;-78
2022/11/11 06:02:00;;;;;;;34.92;21.67;;;282.30;2278.40;;;;;;5072682;28;20028;-78
2022/11/11 06:04:26;;;;;;;38.17;21.85;;;282.30;2278.40;;;;;;5072435;28;20017;-78
2022/11/11 06:06:52;;;;;;;40.28;21.45;;;282.40;2278.40;;;;;;5089316;28;20028;-77
2022/11/11 06:09:18;;;;;;;37.58;20.80;;;282.30;2278.40;;;;;;5072090;28;20174;-77
2022/11/11 06:11:44;;;;;;;42.95;21.30;;;282.40;2278.40;;;;;;5072430;28;20016;-78
2022/11/11 06:14:09;;;;;;;39.03;23.65;;;282.30;2278.40;;;;;;5072127;28;20028;-77
2022/11/11 06:16:35;;;;;;;;;;;282.40;2278.40;;;;;;5072563;28;20474;-78
2022/11/11 06:19:03;;;;;;;39.67;20.10;;;282.40;2278.40;;;;;;5072560;28;20269;-78
2022/11/11 06:21:29;;;;;;;39.72;22.00;;;282.50;2278.40;;;;;;5071918;28;20098;-77
2022/11/11 06:23:55;;;;;;;38.50;21.13;;;282.50;2278.40;;;;;;5072266;28;20051;-78
2022/11/11 06:26:20;;;;;;;45.88;22.08;;;282.40;2278.40;;;;;;5073253;28;20461;-78
2022/11/11 06:28:51;;;;;;;37.70;22.05;;;282.50;2278.40;;;;;;5071550;28;20397;-78
2022/11/11 06:31:23;;;;;;;40.30;22.52;;;282.50;2278.40;;;;;;5071523;28;20017;-78
2022/11/11 06:33:49;;;;;;;38.22;22.67;;;282.50;2278.40;;;;;;5071717;28;20025;-77
2022/11/11 06:36:17;;;;;;;39.30;21.42;;;282.50;2278.40;;;;;;5070925;28;20103;-78
2022/11/11 06:38:43;;;;;;;38.20;21.23;;;307.20;2304.00;;;;;;5070680;28;20158;-77
2022/11/11 06:41:13;;;;;;;43.88;22.73;;;307.20;2304.00;;;;;;5071705;28;20054;-77
2022/11/11 06:43:39;;;;;;;37.25;22.83;;;282.50;2278.40;;;;;;5071700;28;20023;-79
2022/11/11 06:46:05;;;;;;;38.20;22.25;;;307.20;2304.00;;;;;;5071925;28;20025;-76
2022/11/11 06:48:31;;;;;;;41.33;21.13;;;307.20;2304.00;;;;;;5071690;28;20028;-78
2022/11/11 06:51:03;;;;;;;37.67;22.23;;;307.30;2304.00;;;;;;5082056;28;20021;-78
2022/11/11 06:53:29;;;;;;;36.88;21.00;;;307.30;2304.00;;;;;;5092565;28;20021;-78
2022/11/11 06:55:56;;;;;;;46.42;22.08;;;307.20;2304.00;;;;;;5092038;28;20043;-78
2022/11/11 06:58:22;;;;;;;41.63;22.52;;;307.30;2304.00;;;;;;5091053;28;20039;-75
2022/11/11 07:00:49;;;;;;;38.40;21.67;;;307.30;2304.00;;;;;;5084996;28;20534;-83
2022/11/11 07:03:18;;;;;;;35.63;21.65;;;307.30;2304.00;;;;;;5080766;28;20066;-82
2022/11/11 07:05:46;;;;;;;36.90;23.50;;;307.30;2304.00;;;;;;5092380;28;20390;-77
2022/11/11 07:08:14;;;;;;;40.35;21.35;;;307.30;2304.00;;;;;;5085220;28;20036;-80
2022/11/11 07:10:43;;;;;;;39.35;20.77;;;307.40;2304.00;;;;;;5085766;28;20024;-78
2022/11/11 07:13:09;;;;;;;45.92;24.00;;;307.40;2304.00;;;;;;5086529;28;20024;-78
2022/11/11 07:15:36;;;;;;;34.03;21.10;;;307.40;2304.00;;;;;;5083939;28;20031;-81
2022/11/11 07:18:02;;;;;;;37.22;21.45;;;307.30;2304.00;;;;;;5092266;28;20028;-82
2022/11/11 07:20:28;;;;;;;42.17;23.42;;;307.40;2304.00;;;;;;5092463;28;20021;-80
2022/11/11 07:22:54;;;;;;;40.20;22.48;;;307.40;2304.00;;;;;;5091757;28;20028;-81
2022/11/11 07:25:20;;;;;;;47.33;24.38;;;307.40;2304.00;;;;;;5091551;28;20046;-82
2022/11/11 07:27:46;;;;;;;40.22;24.25;;;307.40;2304.00;;;;;;5091596;28;20108;-82
2022/11/11 07:30:13;;;;;;;37.00;22.85;;;307.50;2304.00;;;;;;5079340;28;20032;-82
2022/11/11 07:32:50;;;;;;;45.88;23.95;;;307.40;2304.00;;;;;;5071659;28;20481;-83
2022/11/11 07:35:18;;;;;;;43.03;22.15;;;307.40;2304.00;;;;;;5071070;28;20031;-89
2022/11/11 07:37:44;;;;;;;35.70;22.70;;;307.50;2304.00;;;;;;5086019;28;20035;-82
2022/11/11 07:40:12;;;;;;;39.72;22.83;;;307.50;2304.00;;;;;;5087515;28;20025;-81
2022/11/11 07:42:39;;;;;;;37.55;22.25;;;307.50;2304.00;;;;;;5071529;28;20025;-82
2022/11/11 07:45:06;;;;;;;35.97;21.90;;;307.50;2304.00;;;;;;5082784;28;20024;-82
2022/11/11 07:47:33;;;;;;;36.47;21.88;;;307.50;2304.00;;;;;;5092110;28;20028;-81
2022/11/11 07:49:59;;;;;;;40.45;23.77;;;307.50;2304.00;;;;;;5091895;28;20020;-83
2022/11/11 07:52:25;;;;;;;41.50;24.05;;;307.50;2304.00;;;;;;5091620;28;20542;-83
2022/11/11 07:54:51;;;;;;;42.75;23.55;;;307.60;2304.00;;;;;;5090783;28;20040;-81
2022/11/11 07:57:16;;;;;;;38.60;22.33;;;307.60;2304.00;;;;;;5091479;28;20048;-86
2022/11/11 07:59:42;;;;;;;42.75;23.38;;;307.60;2304.00;;;;;;5093074;28;20466;-84
2022/11/11 08:02:09;;;;;;;;;;;307.70;2304.00;;;;;;5078991;28;20474;-82
2022/11/11 08:04:34;;;;;;;42.45;23.80;;;307.80;2304.00;;;;;;5086884;28;19904;-82
2022/11/11 08:07:00;;;;;;;45.40;24.45;;;307.80;2304.00;;;;;;5071288;28;20043;-81
2022/11/11 08:09:25;;;;;;;;;;;307.80;2304.00;;;;;;5072016;28;20023;-86
2022/11/11 08:14:35;;;;;;;46.17;25.60;;;307.80;2304.00;;;;;;5073023;28;20418;-82
2022/11/11 08:17:01;;;;;;;48.75;25.05;;;307.80;2304.00;;;;;;5081230;28;20051;-90
2022/11/11 08:19:27;;;;;;;47.90;25.77;;;307.70;2304.00;;;;;;5090237;28;20052;-83
2022/11/11 08:21:52;;;;;;;44.15;25.90;;;307.80;2304.00;;;;;;5071679;28;20029;-86
2022/11/11 08:24:18;;;;;;;47.35;26.27;;;307.90;2304.00;;;;;;5085088;28;20111;-84
2022/11/11 08:26:45;;;;;;;46.33;26.88;;;307.90;2304.00;;;;;;5090320;28;20032;-79
2022/11/11 08:29:11;;;;;;;45.65;25.70;;;308.00;2304.00;;;;;;5079137;28;20029;-79
2022/11/11 08:31:38;;;;;;;44.53;26.27;;;308.10;2304.00;;;;;;5090214;28;20458;-82
2022/11/11 08:34:04;;;;;;;45.92;26.02;;;308.10;2304.00;;;;;;5091853;28;20028;-84
2022/11/11 08:36:29;;;;;;;46.65;25.42;;;332.80;2329.60;;;;;;5090971;28;20115;-78
2022/11/11 08:38:55;;;;;;;43.25;23.67;;;332.80;2329.60;;;;;;5090805;28;20089;-80
2022/11/11 08:41:22;;;;;;;45.33;26.35;;;332.90;2329.60;;;;;;5091181;28;20063;-79
2022/11/11 08:43:51;;;;;;;42.50;24.08;;;333.00;2329.60;;;;;;5084419;28;20236;-79
2022/11/11 08:46:16;;;;;;;45.05;25.85;;;333.00;2329.60;;;;;;5070859;28;20385;-77
2022/11/11 08:48:42;;;;;;;51.17;27.48;;;333.00;2329.60;;;;;;5089057;28;20028;-80
2022/11/11 08:51:08;;;;;;;46.85;24.95;;;333.20;2329.60;;;;;;5076193;28;20166;-79
2022/11/11 08:53:33;;;;;;;47.10;24.80;;;333.20;2329.60;;;;;;5092158;28;20409;-79
2022/11/11 08:56:03;;;;;;;44.13;25.98;;;333.20;2329.60;;;;;;5090553;28;20051;-80
2022/11/11 08:58:29;;;;;;;40.63;24.25;;;333.30;2329.60;;;;;;5091224;28;20028;-81
2022/11/11 09:00:55;;;;;;;41.90;24.42;;;358.40;2329.60;;;;;;5087487;28;20086;-79
2022/11/11 09:03:21;;;;;;;47.65;26.65;;;333.40;2329.60;;;;;;5079943;28;20047;-82
2022/11/11 09:05:47;;;;;;;49.05;26.95;;;333.40;2329.60;;;;;;5074575;28;20394;-86
2022/11/11 09:08:12;;;;;;;47.00;27.27;;;333.40;2329.60;;;;;;5073418;28;20052;-91
2022/11/11 09:10:38;;;;;;;46.83;26.92;;;333.50;2329.60;;;;;;5090238;28;20378;-81
2022/11/11 09:13:04;;;;;;;45.55;23.42;;;333.60;2329.60;;;;;;5073712;28;20063;-81
2022/11/11 09:15:31;;;;;;;48.92;26.35;;;333.70;2329.60;;;;;;5073687;28;20020;-83
2022/11/11 09:17:56;;;;;;;50.40;26.30;;;333.70;2329.60;;;;;;5075589;28;20024;-77
2022/11/11 09:20:22;;;;;;;51.55;27.50;;;333.70;2329.60;;;;;;5092636;28;20031;-78
2022/11/11 09:22:48;;;;;;;43.42;26.30;;;358.50;2329.60;;;;;;5072656;28;20543;-79
2022/11/11 09:25:15;;;;;;;45.92;25.20;;;358.70;2329.60;;;;;;5072958;28;20051;-79
2022/11/11 09:27:41;;;;;;;44.78;24.73;;;358.80;2329.60;;;;;;5088047;28;20032;-79
2022/11/11 09:30:09;;;;;;;45.22;25.27;;;358.80;2329.60;;;;;;5093796;28;20035;-80
2022/11/11 09:32:35;;;;;;;43.70;25.23;;;359.00;2329.60;;;;;;5093283;28;20070;-80
2022/11/11 09:35:02;;;;;;;40.85;24.02;;;359.10;2329.60;;;;;;5094024;28;20500;-79
2022/11/11 09:37:27;;;;;;;39.78;25.45;;;384.00;2329.60;;;;;;5084598;28;20048;-82
2022/11/11 09:39:55;;;;;;;38.78;23.25;;;384.00;2329.60;;;;;;5089089;28;20060;-78
2022/11/11 09:42:26;;;;;;;38.15;23.13;;;384.10;2329.60;;;;;;5077392;28;20055;-78
2022/11/11 09:45:10;;;;;;;41.08;25.48;;;384.20;2329.60;;;;;;5073606;28;20040;-78
2022/11/11 09:48:03;;;;;;;43.30;26.42;;;384.30;2329.60;;;;;;5085007;28;20565;-81
2022/11/11 09:50:32;;;;;;;42.83;25.15;;;384.40;2329.60;;;;;;5073090;28;20016;-75
2022/11/11 09:53:10;;;;;;;43.90;25.48;;;384.70;2329.60;;;;;;5073244;28;20028;-81
2022/11/11 09:55:55;;;;;;;50.00;25.98;;;384.90;2329.60;;;;;;5082116;28;20028;-80
2022/11/11 09:58:41;;;;;;;44.47;24.33;;;409.60;2355.20;;;;;;5093655;28;20028;-81
2022/11/11 10:01:28;;;;;;;42.13;24.25;;;409.80;2355.20;;;;;;5081065;28;20035;-79
2022/11/11 10:04:00;;;;;;;;;;;410.00;2355.20;;;;;;5088840;28;20454;-81
2022/11/11 10:06:34;;;;;;;38.97;23.77;;;410.00;2355.20;;;;;;5094077;28;19908;-78
2022/11/11 10:09:21;;;;;;;41.70;23.95;;;410.00;2355.20;;;;;;5081844;28;20379;-81
2022/11/11 10:11:59;;;;;;;42.65;25.75;;;410.10;2355.20;;;;;;5072362;28;20029;-81
2022/11/11 10:14:33;;;;;;;39.78;24.45;;;410.20;2355.20;;;;;;5072736;28;20025;-83
2022/11/11 10:17:05;;;;;;;40.67;24.70;;;410.20;2355.20;;;;;;5083339;28;20466;-79
2022/11/11 10:19:39;;;;;;;43.08;26.73;;;410.10;2355.20;;;;;;5079513;28;20036;-88
2022/11/11 10:22:26;;;;;;;58.33;33.00;;;409.80;2355.20;;;;;;5093467;28;20019;-79
2022/11/11 10:25:23;;;;;;;44.08;29.02;;;410.00;2355.20;;;;;;5088306;28;20162;-80
2022/11/11 10:27:53;;;;;;;54.03;27.88;;;409.70;2355.20;;;;;;5087231;28;20047;-84
2022/11/11 10:30:21;;;;;;;49.15;27.88;;;409.90;2355.20;;;;;;5093503;28;20535;-82
2022/11/11 10:33:03;;;;;;;42.65;26.67;;;410.30;2355.20;;;;;;5079501;28;20035;-84
2022/11/11 10:35:31;;;;;;;41.17;24.35;;;410.30;2355.20;;;;;;5066396;28;20024;-88
2022/11/11 10:38:09;;;;;;;50.83;27.73;;;409.90;2355.20;;;;;;5087903;28;20017;-83
2022/11/11 10:40:38;;;;;;;43.78;25.55;;;410.50;2355.20;;;;;;5093704;28;20028;-82
2022/11/11 10:43:04;;;;;;;41.35;24.30;;;435.40;2355.20;;;;;;5092854;28;20089;-82
2022/11/11 10:45:53;;;;;;;43.80;26.08;;;435.40;2355.20;;;;;;5092922;28;20024;-80
2022/11/11 10:48:30;;;;;;;47.75;25.88;;;435.50;2355.20;;;;;;5091582;28;20028;-79
2022/11/11 10:51:00;;;;;;;43.58;26.02;;;435.50;2355.20;;;;;;5081828;28;20020;-87
2022/11/11 10:53:49;;;;;;;45.70;27.83;;;436.10;2355.20;;;;;;5076107;28;20044;-80
2022/11/11 10:56:43;;;;;;;44.47;26.17;;;461.10;2380.80;;;;;;5083287;28;20425;-83
2022/11/11 10:59:47;;;;;;;43.83;26.85;;;461.10;2380.80;;;;;;5067105;28;20037;-86
2022/11/11 11:02:25;;;;;;;45.40;27.63;;;461.20;2380.80;;;;;;5079886;28;20538;-81
2022/11/11 11:05:28;;;;;;;45.13;24.33;;;461.30;2380.80;;;;;;5067385;28;20023;-86
2022/11/11 11:08:05;;;;;;;39.30;24.70;;;461.10;2380.80;;;;;;5087885;28;20031;-80
2022/11/11 11:11:27;;;;;;;37.78;23.35;;;460.80;2380.80;;;;;;5084372;28;20035;-82
2022/11/11 11:13:59;;;;;;;44.47;24.83;;;436.00;2355.20;;;;;;5011270;28;20021;-77
2022/11/11 11:16:31;;;;;;;43.50;24.13;;;461.10;2380.80;;;;;;4995303;28;20030;-78
2022/11/11 11:19:17;;;;;;;38.17;23.98;;;460.90;2380.80;;;;;;5010950;28;20041;-79
2022/11/11 11:21:54;;;;;;;47.33;24.42;;;461.40;2380.80;;;;;;5011251;28;20145;-80
2022/11/11 11:24:23;;;;;;;45.58;24.92;;;461.50;2380.80;;;;;;4994167;28;20443;-77
2022/11/11 11:26:53;;;;;;;39.25;24.38;;;461.60;2380.80;;;;;;5010290;28;20033;-78
2022/11/11 11:29:29;;;;;;;42.90;25.10;;;461.50;2380.80;;;;;;5009821;28;20041;-75
2022/11/11 11:32:09;;;;;;;46.47;29.50;;;461.50;2380.80;;;;;;5010808;28;20038;-77
2022/11/11 11:34:52;;;;;;;39.45;25.35;;;461.40;2380.80;;;;;;5010947;28;20029;-80
2022/11/11 11:37:20;;;;;;;41.17;23.83;;;461.30;2380.80;;;;;;5011066;28;20109;-79
2022/11/11 11:39:47;;;;;;;53.28;27.95;;;461.40;2380.80;;;;;;4994477;28;20040;-80
2022/11/11 11:42:36;;;;;;;44.60;27.17;;;461.40;2380.80;;;;;;4993588;28;20041;-79
2022/11/11 11:45:31;;;;;;;55.40;29.77;;;461.40;2380.80;;;;;;4986148;28;20140;-80
2022/11/11 11:48:08;;;;;;;53.95;30.95;;;461.40;2380.80;;;;;;4975217;28;20128;-80
2022/11/11 11:50:45;;;;;;;42.30;25.52;;;461.50;2380.80;;;;;;4990742;28;20240;-80
2022/11/11 11:53:16;;;;;;;58.28;29.60;;;461.20;2380.80;;;;;;5010762;28;20033;-79
2022/11/11 11:55:48;;;;;;;50.70;28.05;;;461.20;2380.80;;;;;;5008416;28;20042;-80
2022/11/11 11:58:41;;;;;;;67.20;35.75;;;461.10;2380.80;;;;;;4986331;28;20038;-79
2022/11/11 12:01:15;;;;;;;43.40;24.35;;;460.90;2380.80;;;;;;4993317;28;20050;-79
2022/11/11 12:04:20;;;;;;;38.17;22.70;;;460.80;2380.80;;;;;;5009416;28;20030;-78
2022/11/11 12:07:27;;;;;;;37.70;21.35;;;460.80;2380.80;;;;;;4992403;28;20030;-79
2022/11/11 12:10:31;;;;;;;43.05;24.45;;;460.80;2380.80;;;;;;5009350;28;20045;-79
2022/11/11 12:13:38;;;;;;;65.82;34.22;;;436.10;2355.20;;;;;;5007078;28;20436;-80
2022/11/11 12:16:30;;;;;;;54.70;29.05;;;436.10;2355.20;;;;;;5009703;28;20511;-77
2022/11/11 12:19:10;;;;;;;41.88;25.13;;;436.10;2355.20;;;;;;4970845;28;20493;-76
2022/11/11 12:22:06;;;;;;;38.40;22.67;;;460.80;2380.80;;;;;;4989955;28;20041;-76
2022/11/11 12:24:48;;;;;;;37.40;21.35;;;460.80;2380.80;;;;;;5029556;28;20093;-77
2022/11/11 12:27:19;;;;;;;33.65;19.02;;;460.90;2380.80;;;;;;5028679;28;20131;-75
2022/11/11 12:30:08;;;;;;;26.58;15.68;;;461.40;2380.80;;;;;;5012585;28;20061;-76
2022/11/11 12:32:37;;;;;;;39.78;21.73;;;460.90;2380.80;;;;;;5011982;28;20031;-76
2022/11/11 12:35:21;;;;;;;32.22;18.73;;;460.90;2380.80;;;;;;5028886;28;20092;-78
2022/11/11 12:37:56;;;;;;;30.65;17.65;;;460.80;2380.80;;;;;;5027099;28;20026;-78
2022/11/11 12:40:58;;;;;;;27.02;15.85;;;460.80;2380.80;;;;;;5014229;28;20018;-76
2022/11/11 12:43:31;;;;;;;26.50;15.82;;;436.00;2355.20;;;;;;5030119;28;20060;-79
2022/11/11 12:46:03;;;;;;;24.02;14.30;;;435.90;2355.20;;;;;;5053039;28;20029;-76
2022/11/11 12:48:41;;;;;;;25.17;14.52;;;435.70;2355.20;;;;;;5053397;28;20041;-79
2022/11/11 12:51:27;;;;;;;28.90;16.17;;;435.60;2355.20;;;;;;5053100;28;20024;-77
2022/11/11 12:54:21;;;;;;;24.45;14.70;;;435.60;2355.20;;;;;;5030260;28;20041;-76
2022/11/11 12:57:12;;;;;;;20.83;13.57;;;435.70;2355.20;;;;;;5088102;28;20079;-76
2022/11/11 12:59:37;;;;;;;25.23;16.60;;;435.70;2355.20;;;;;;5094409;28;20043;-75
2022/11/11 13:02:37;;;;;;;29.92;17.92;;;435.70;2355.20;;;;;;5082592;28;20111;-75
2022/11/11 13:05:44;;;;;;;27.83;17.25;;;435.80;2355.20;;;;;;5084222;28;20070;-77
2022/11/11 13:08:37;;;;;;;28.63;15.70;;;435.90;2355.20;;;;;;5006485;28;20038;-78
2022/11/11 13:11:30;;;;;;;26.90;15.32;;;435.90;2355.20;;;;;;5009546;28;20120;-77
2022/11/11 13:14:22;;;;;;;27.73;16.52;;;435.90;2355.20;;;;;;4996020;28;20042;-78
2022/11/11 13:16:50;;;;;;;18.92;11.57;;;436.00;2355.20;;;;;;5005269;28;20038;-79
2022/11/11 13:19:58;;;;;;;21.10;12.23;;;435.90;2355.20;;;;;;4990251;28;20085;-77
2022/11/11 13:22:28;;;;;;;38.33;17.75;;;436.00;2355.20;;;;;;4967451;28;20484;-82
2022/11/11 13:24:55;;;;;;;22.98;13.73;;;436.00;2355.20;;;;;;4957691;28;20501;-81
2022/11/11 13:27:45;;;;;;;31.83;18.20;;;435.90;2355.20;;;;;;4951441;28;20560;-78
2022/11/11 13:30:26;;;;;;;21.40;12.98;;;435.90;2355.20;;;;;;4938107;28;20043;-79
2022/11/11 13:33:19;;;;;;;16.13;9.60;;;435.80;2355.20;;;;;;4943426;28;20066;-78